sensor_id;sensor_type;location;lat;lon;timestamp;P1;durP1;ratioP1;P2;durP2;ratioP2
60430;SDS011;46285;45.122;20.726;2023-03-14T00:09:10;11.48;;;5.25;;
60430;SDS011;46285;45.122;20.726;2023-03-14T00:19:11;15.10;;;7.10;;
60430;SDS011;46285;45.122;20.726;2023-03-14T00:29:12;11.85;;;5.45;;
60430;SDS011;46285;45.122;20.726;2023-03-14T00:39:13;9.23;;;4.55;;
60430;SDS011;46285;45.122;20.726;2023-03-14T00:49:14;9.45;;;4.72;;
60430;SDS011;46285;45.122;20.726;2023-03-14T00:59:17;12.15;;;4.82;;
60430;SDS011;46285;45.122;20.726;2023-03-14T01:09:18;9.65;;;5.30;;
60430;SDS011;46285;45.122;20.726;2023-03-14T01:19:21;9.30;;;4.90;;
60430;SDS011;46285;45.122;20.726;2023-03-14T01:29:23;8.63;;;4.90;;
60430;SDS011;46285;45.122;20.726;2023-03-14T01:39:24;8.13;;;4.88;;
60430;SDS011;46285;45.122;20.726;2023-03-14T01:49:30;9.23;;;4.78;;
60430;SDS011;46285;45.122;20.726;2023-03-14T01:59:36;9.05;;;4.45;;
60430;SDS011;46285;45.122;20.726;2023-03-14T02:09:38;8.60;;;4.05;;
60430;SDS011;46285;45.122;20.726;2023-03-14T02:20:45;9.55;;;5.05;;
60430;SDS011;46285;45.122;20.726;2023-03-14T02:30:17;9.73;;;4.00;;
60430;SDS011;46285;45.122;20.726;2023-03-14T02:40:18;7.50;;;4.50;;
60430;SDS011;46285;45.122;20.726;2023-03-14T02:50:25;8.95;;;4.50;;
60430;SDS011;46285;45.122;20.726;2023-03-14T03:00:28;8.98;;;4.60;;
60430;SDS011;46285;45.122;20.726;2023-03-14T03:10:29;9.38;;;4.50;;
60430;SDS011;46285;45.122;20.726;2023-03-14T03:20:31;8.90;;;4.13;;
60430;SDS011;46285;45.122;20.726;2023-03-14T03:30:34;10.32;;;4.05;;
60430;SDS011;46285;45.122;20.726;2023-03-14T03:40:37;10.38;;;4.82;;
60430;SDS011;46285;45.122;20.726;2023-03-14T03:50:46;7.95;;;3.90;;
60430;SDS011;46285;45.122;20.726;2023-03-14T04:00:50;10.35;;;4.30;;
60430;SDS011;46285;45.122;20.726;2023-03-14T04:10:54;12.05;;;4.22;;
60430;SDS011;46285;45.122;20.726;2023-03-14T04:21:04;10.45;;;6.13;;
60430;SDS011;46285;45.122;20.726;2023-03-14T04:31:17;24.77;;;15.50;;
60430;SDS011;46285;45.122;20.726;2023-03-14T04:41:18;14.95;;;6.60;;
60430;SDS011;46285;45.122;20.726;2023-03-14T04:51:20;11.48;;;6.85;;
60430;SDS011;46285;45.122;20.726;2023-03-14T05:01:21;9.48;;;5.60;;
60430;SDS011;46285;45.122;20.726;2023-03-14T05:11:41;9.95;;;5.25;;
60430;SDS011;46285;45.122;20.726;2023-03-14T05:22:00;10.32;;;5.38;;
60430;SDS011;46285;45.122;20.726;2023-03-14T05:32:07;16.50;;;9.40;;
60430;SDS011;46285;45.122;20.726;2023-03-14T05:42:20;11.98;;;6.90;;
60430;SDS011;46285;45.122;20.726;2023-03-14T05:52:59;9.93;;;6.05;;
60430;SDS011;46285;45.122;20.726;2023-03-14T06:03:21;10.25;;;4.93;;
60430;SDS011;46285;45.122;20.726;2023-03-14T06:13:22;13.68;;;7.28;;
60430;SDS011;46285;45.122;20.726;2023-03-14T06:23:25;10.07;;;5.45;;
60430;SDS011;46285;45.122;20.726;2023-03-14T06:33:27;17.75;;;9.10;;
60430;SDS011;46285;45.122;20.726;2023-03-14T06:43:28;16.88;;;9.57;;
60430;SDS011;46285;45.122;20.726;2023-03-14T06:53:31;14.05;;;7.60;;
60430;SDS011;46285;45.122;20.726;2023-03-14T07:03:34;11.00;;;6.38;;
60430;SDS011;46285;45.122;20.726;2023-03-14T07:13:38;14.02;;;6.47;;
60430;SDS011;46285;45.122;20.726;2023-03-14T07:23:41;13.35;;;6.53;;
60430;SDS011;46285;45.122;20.726;2023-03-14T07:33:42;9.85;;;4.93;;
60430;SDS011;46285;45.122;20.726;2023-03-14T07:43:44;13.02;;;6.70;;
60430;SDS011;46285;45.122;20.726;2023-03-14T07:53:45;21.38;;;10.23;;
60430;SDS011;46285;45.122;20.726;2023-03-14T08:03:46;21.73;;;7.15;;
60430;SDS011;46285;45.122;20.726;2023-03-14T08:13:47;15.18;;;6.85;;
60430;SDS011;46285;45.122;20.726;2023-03-14T08:23:48;16.27;;;8.18;;
60430;SDS011;46285;45.122;20.726;2023-03-14T08:33:49;15.07;;;6.93;;
60430;SDS011;46285;45.122;20.726;2023-03-14T08:43:50;17.85;;;8.13;;
60430;SDS011;46285;45.122;20.726;2023-03-14T08:53:54;9.85;;;5.40;;
60430;SDS011;46285;45.122;20.726;2023-03-14T09:14:40;13.77;;;7.07;;
60430;SDS011;46285;45.122;20.726;2023-03-14T09:24:41;9.88;;;6.57;;
60430;SDS011;46285;45.122;20.726;2023-03-14T09:34:42;16.13;;;6.97;;
60430;SDS011;46285;45.122;20.726;2023-03-14T09:45:03;18.55;;;5.43;;
60430;SDS011;46285;45.122;20.726;2023-03-14T09:55:13;15.68;;;8.60;;
60430;SDS011;46285;45.122;20.726;2023-03-14T10:05:17;14.07;;;5.75;;
60430;SDS011;46285;45.122;20.726;2023-03-14T10:15:22;10.98;;;6.40;;
60430;SDS011;46285;45.122;20.726;2023-03-14T10:25:26;10.93;;;5.32;;
60430;SDS011;46285;45.122;20.726;2023-03-14T10:35:28;10.55;;;5.38;;
60430;SDS011;46285;45.122;20.726;2023-03-14T10:45:41;10.48;;;4.25;;
60430;SDS011;46285;45.122;20.726;2023-03-14T10:55:43;13.77;;;5.88;;
60430;SDS011;46285;45.122;20.726;2023-03-14T11:16:27;11.10;;;4.82;;
60430;SDS011;46285;45.122;20.726;2023-03-14T11:47:05;13.70;;;5.38;;
60430;SDS011;46285;45.122;20.726;2023-03-14T12:07:52;15.25;;;4.68;;
60430;SDS011;46285;45.122;20.726;2023-03-14T12:17:37;14.93;;;5.47;;
60430;SDS011;46285;45.122;20.726;2023-03-14T12:27:45;17.95;;;6.13;;
60430;SDS011;46285;45.122;20.726;2023-03-14T12:37:46;20.25;;;5.88;;
60430;SDS011;46285;45.122;20.726;2023-03-14T12:58:03;14.02;;;5.18;;
60430;SDS011;46285;45.122;20.726;2023-03-14T13:08:09;13.18;;;5.80;;
60430;SDS011;46285;45.122;20.726;2023-03-14T13:18:17;14.38;;;6.40;;
60430;SDS011;46285;45.122;20.726;2023-03-14T13:28:20;27.35;;;14.52;;
60430;SDS011;46285;45.122;20.726;2023-03-14T13:38:23;11.77;;;5.95;;
60430;SDS011;46285;45.122;20.726;2023-03-14T13:48:27;12.52;;;6.47;;
60430;SDS011;46285;45.122;20.726;2023-03-14T14:08:30;14.43;;;7.60;;
60430;SDS011;46285;45.122;20.726;2023-03-14T14:18:31;21.40;;;9.63;;
60430;SDS011;46285;45.122;20.726;2023-03-14T14:28:34;18.27;;;7.25;;
60430;SDS011;46285;45.122;20.726;2023-03-14T14:38:36;19.90;;;9.23;;
60430;SDS011;46285;45.122;20.726;2023-03-14T14:48:38;31.40;;;15.30;;
60430;SDS011;46285;45.122;20.726;2023-03-14T14:59:04;25.75;;;14.07;;
60430;SDS011;46285;45.122;20.726;2023-03-14T15:09:08;18.15;;;7.68;;
60430;SDS011;46285;45.122;20.726;2023-03-14T15:19:10;15.70;;;7.88;;
60430;SDS011;46285;45.122;20.726;2023-03-14T15:29:12;20.10;;;9.77;;
60430;SDS011;46285;45.122;20.726;2023-03-14T15:39:13;20.08;;;11.32;;
60430;SDS011;46285;45.122;20.726;2023-03-14T15:49:14;10.98;;;5.45;;
60430;SDS011;46285;45.122;20.726;2023-03-14T15:59:16;19.25;;;11.52;;
60430;SDS011;46285;45.122;20.726;2023-03-14T16:09:18;16.95;;;10.05;;
60430;SDS011;46285;45.122;20.726;2023-03-14T16:19:19;22.70;;;12.18;;
60430;SDS011;46285;45.122;20.726;2023-03-14T16:29:20;17.05;;;10.50;;
60430;SDS011;46285;45.122;20.726;2023-03-14T16:39:22;17.50;;;10.13;;
60430;SDS011;46285;45.122;20.726;2023-03-14T16:49:24;21.75;;;10.75;;
60430;SDS011;46285;45.122;20.726;2023-03-14T16:59:25;32.42;;;20.45;;
60430;SDS011;46285;45.122;20.726;2023-03-14T17:09:26;48.33;;;28.77;;
60430;SDS011;46285;45.122;20.726;2023-03-14T17:19:27;31.95;;;17.60;;
60430;SDS011;46285;45.122;20.726;2023-03-14T17:29:29;18.88;;;10.88;;
60430;SDS011;46285;45.122;20.726;2023-03-14T17:39:30;24.52;;;12.25;;
60430;SDS011;46285;45.122;20.726;2023-03-14T17:49:31;19.27;;;10.57;;
60430;SDS011;46285;45.122;20.726;2023-03-14T17:59:32;20.48;;;10.68;;
60430;SDS011;46285;45.122;20.726;2023-03-14T18:09:34;21.27;;;12.52;;
60430;SDS011;46285;45.122;20.726;2023-03-14T18:19:35;22.75;;;13.20;;
60430;SDS011;46285;45.122;20.726;2023-03-14T18:29:36;24.50;;;14.13;;
60430;SDS011;46285;45.122;20.726;2023-03-14T18:39:37;23.67;;;13.60;;
60430;SDS011;46285;45.122;20.726;2023-03-14T18:49:39;22.50;;;12.73;;
60430;SDS011;46285;45.122;20.726;2023-03-14T18:59:40;17.83;;;9.80;;
60430;SDS011;46285;45.122;20.726;2023-03-14T19:09:42;15.15;;;9.35;;
60430;SDS011;46285;45.122;20.726;2023-03-14T19:19:43;14.20;;;7.28;;
60430;SDS011;46285;45.122;20.726;2023-03-14T19:29:44;15.80;;;8.85;;
60430;SDS011;46285;45.122;20.726;2023-03-14T19:39:45;15.75;;;7.50;;
60430;SDS011;46285;45.122;20.726;2023-03-14T19:49:46;21.58;;;9.55;;
60430;SDS011;46285;45.122;20.726;2023-03-14T19:59:48;18.63;;;9.85;;
60430;SDS011;46285;45.122;20.726;2023-03-14T20:09:49;14.98;;;7.10;;
60430;SDS011;46285;45.122;20.726;2023-03-14T20:19:50;13.32;;;8.38;;
60430;SDS011;46285;45.122;20.726;2023-03-14T20:29:54;15.98;;;8.23;;
60430;SDS011;46285;45.122;20.726;2023-03-14T20:39:56;22.10;;;11.60;;
60430;SDS011;46285;45.122;20.726;2023-03-14T20:49:57;24.23;;;11.98;;
60430;SDS011;46285;45.122;20.726;2023-03-14T20:59:58;20.75;;;11.07;;
60430;SDS011;46285;45.122;20.726;2023-03-14T21:09:59;18.85;;;8.18;;
60430;SDS011;46285;45.122;20.726;2023-03-14T21:20:00;18.77;;;10.27;;
60430;SDS011;46285;45.122;20.726;2023-03-14T21:30:02;50.30;;;21.40;;
60430;SDS011;46285;45.122;20.726;2023-03-14T21:40:03;11.35;;;6.47;;
60430;SDS011;46285;45.122;20.726;2023-03-14T21:50:04;16.85;;;8.38;;
60430;SDS011;46285;45.122;20.726;2023-03-14T22:00:06;20.38;;;7.25;;
60430;SDS011;46285;45.122;20.726;2023-03-14T22:10:08;13.65;;;5.55;;
60430;SDS011;46285;45.122;20.726;2023-03-14T22:20:11;13.40;;;6.03;;
60430;SDS011;46285;45.122;20.726;2023-03-14T22:30:13;15.07;;;6.25;;
60430;SDS011;46285;45.122;20.726;2023-03-14T22:40:14;11.02;;;5.82;;
60430;SDS011;46285;45.122;20.726;2023-03-14T22:50:15;13.18;;;5.25;;
60430;SDS011;46285;45.122;20.726;2023-03-14T23:00:16;13.60;;;6.55;;
60430;SDS011;46285;45.122;20.726;2023-03-14T23:10:18;17.38;;;8.40;;
60430;SDS011;46285;45.122;20.726;2023-03-14T23:20:19;9.40;;;5.32;;
60430;SDS011;46285;45.122;20.726;2023-03-14T23:30:20;13.23;;;6.50;;
60430;SDS011;46285;45.122;20.726;2023-03-14T23:40:22;8.00;;;4.15;;
60430;SDS011;46285;45.122;20.726;2023-03-14T23:50:23;10.77;;;4.82;;
